Hyalite Weather Station

This weather station provides temperature, wind speed, gust or max wind speed, and wind direction at 9982ft near the summit of Flanders Mountain. This data can be used with temperature and precipitation data from the Shower Falls SNOTEL site. If the data has not been updated recently you can view it directly on datagarrison.com

Elevation
9982ft
Jump to table bottom
Date Time Temperature
deg F
RH, % Wind Speed Wind Gust Wind Direction
01/21/20 21:00 20.4 81 21 32 SW - 243
01/21/20 20:00 19.7 83 20 30 SW - 240
01/21/20 19:00 20.7 82 20 31 SW - 243
01/21/20 18:00 19.9 81 15 27 SW - 241
01/21/20 17:00 20.6 80 12 23 SW - 241
01/21/20 16:00 21.5 79 8 16 SW - 237
01/21/20 15:00 21.9 77 10 21 W - 250
01/21/20 14:00 23.1 76 12 24 W - 248
01/21/20 13:00 22.9 74 19 33 W - 251
01/21/20 12:00 23.1 75 20 33 SW - 247
01/21/20 11:00 22.4 78 23 34 SW - 246
01/21/20 10:00 22.1 79 15 27 SW - 239
01/21/20 09:00 22.0 74 15 27 SW - 241
01/21/20 08:00 22.5 69 14 23 W - 248
01/21/20 07:00 23.8 70 20 27 W - 248
01/21/20 06:00 23.2 70 22 30 SW - 246
01/21/20 05:00 24.3 66 18 32 SW - 244
01/21/20 04:00 24.7 65 17 25 SW - 237
01/21/20 03:00 24.3 67 21 29 SW - 237
01/21/20 02:00 24.8 84 25 37 SW - 239
01/21/20 01:00 25.1 84 30 41 SW - 239
01/21/20 00:00 25.1 84 27 39 SW - 236
01/20/20 23:00 25.2 82 29 44 SW - 237
01/20/20 22:00 26.1 81 28 38 SW - 234
01/20/20 21:00 25.3 77 28 42 SW - 234
01/20/20 20:00 27.1 64 26 40 SW - 234
01/20/20 19:00 27.0 45 27 37 SW - 232
01/20/20 18:00 28.2 35 28 38 SW - 232
01/20/20 17:00 27.3 31 28 44 SW - 232
01/20/20 16:00 29.5 31 25 40 SW - 233
01/20/20 15:00 30.5 35 27 42 SW - 236
01/20/20 14:00 31.1 40 22 34 SW - 236
01/20/20 13:00 29.1 40 21 34 SW - 230
01/20/20 12:00 30.2 37 17 27 SW - 232
01/20/20 11:00 30.4 37 12 23 SW - 232
01/20/20 10:00 30.5 39 15 25 SW - 233
01/20/20 09:00 28.6 41 17 27 SW - 234
01/20/20 08:00 28.6 42 14 24 SW - 233
01/20/20 07:00 28.3 43 17 24 SW - 239
01/20/20 06:00 27.9 44 18 24 SW - 241
01/20/20 05:00 28.2 43 15 23 SW - 244
01/20/20 04:00 27.4 49 14 20 SW - 229
01/20/20 03:00 27.3 54 7 14 SW - 230
01/20/20 02:00 25.3 60 7 8 W - 248
01/20/20 01:00 26.1 59 8 12 W - 253
01/20/20 00:00 25.5 53 7 11 W - 258
01/19/20 23:00 25.7 51 9 16 W - 275
01/19/20 22:00 25.7 48 13 19 W - 272
01/19/20 21:00 24.8 43 11 16 W - 275
01/19/20 20:00 25.1 42 12 17 W - 270